Time;durP1;ratioP1;P1;durP2;ratioP2;P2;SDS_P1;SDS_P2;PMS_P1;PMS_P2;Temp;Humidity;BMP_temperature;BMP_pressure;BME280_temperature;BME280_humidity;BME280_pressure;Samples;Min_cycle;Max_cycle;Signal;HPM_P1;HPM_P2
2022/10/08 00:00:53;;;;;;;9.68;2.80;;;13.20;99.90;;;;;;5042087;28;20053;-68
2022/10/08 00:03:20;;;;;;;8.90;2.83;;;13.30;99.90;;;;;;5041784;28;20056;-68
2022/10/08 00:06:05;;;;;;;16.33;3.42;;;13.30;99.90;;;;;;5042222;28;20053;-68
2022/10/08 00:08:36;;;;;;;8.68;3.17;;;13.20;99.90;;;;;;5041837;28;20486;-69
2022/10/08 00:11:11;;;;;;;8.63;3.03;;;13.30;99.90;;;;;;5043418;28;20100;-68
2022/10/08 00:13:42;;;;;;;13.68;2.97;;;13.30;99.90;;;;;;5042615;28;20044;-68
2022/10/08 00:16:18;;;;;;;13.85;3.00;;;13.30;99.90;;;;;;5042131;28;20076;-68
2022/10/08 00:18:45;;;;;;;13.20;3.10;;;13.40;99.90;;;;;;5043392;28;20192;-68
2022/10/08 00:21:17;;;;;;;11.90;3.10;;;13.30;99.90;;;;;;5041888;28;20179;-68
2022/10/08 00:23:45;;;;;;;13.18;2.97;;;13.30;99.90;;;;;;5043556;28;20055;-68
2022/10/08 00:26:12;;;;;;;8.88;2.90;;;13.30;99.90;;;;;;5042497;28;20055;-68
2022/10/08 00:28:42;;;;;;;7.75;3.13;;;13.40;99.90;;;;;;5042644;28;20053;-68
2022/10/08 00:31:19;;;;;;;7.15;2.78;;;13.40;99.90;;;;;;5041530;28;20037;-68
2022/10/08 00:33:49;;;;;;;10.85;2.97;;;13.30;99.90;;;;;;5041735;28;20099;-68
2022/10/08 00:36:14;;;;;;;11.50;3.15;;;13.30;99.90;;;;;;5042816;28;20048;-68
2022/10/08 00:38:40;;;;;;;9.30;2.70;;;13.30;99.90;;;;;;5043367;28;20049;-68
2022/10/08 00:41:07;;;;;;;9.27;2.80;;;13.30;99.90;;;;;;5042992;28;20045;-69
2022/10/08 00:43:44;;;;;;;9.60;2.78;;;13.30;99.90;;;;;;5042208;28;20108;-69
2022/10/08 00:46:48;;;;;;;11.80;2.97;;;13.20;99.90;;;;;;5043596;28;20087;-68
2022/10/08 00:49:18;;;;;;;12.57;2.90;;;13.20;99.90;;;;;;5043095;28;20096;-68
2022/10/08 00:51:50;;;;;;;12.27;3.00;;;13.10;99.90;;;;;;5045608;28;20133;-69
2022/10/08 00:54:17;;;;;;;10.00;3.47;;;13.10;99.90;;;;;;5047743;28;20068;-69
2022/10/08 00:56:43;;;;;;;8.60;3.13;;;13.00;99.90;;;;;;5046709;28;20065;-68
2022/10/08 00:59:11;;;;;;;11.55;3.42;;;12.90;99.90;;;;;;5044944;28;20042;-68
2022/10/08 01:01:41;;;;;;;12.80;3.00;;;12.90;99.90;;;;;;5045604;28;20042;-68
2022/10/08 01:04:07;;;;;;;;;;;12.90;99.90;;;;;;5047345;28;20044;-68
2022/10/08 01:06:40;;;;;;;;;;;12.90;99.90;;;;;;5040899;28;19925;-69
2022/10/08 01:09:41;;;;;;;;;;;13.00;99.90;;;;;;5045610;28;20312;-68
2022/10/08 01:12:22;;;;;;;;;;;12.90;99.90;;;;;;5008843;28;19928;-68
2022/10/08 01:14:58;;;;;;;;;;;12.80;99.90;;;;;;5025259;28;19925;-69
2022/10/08 01:17:42;;;;;;;;;;;12.80;99.90;;;;;;5007270;28;19945;-68
2022/10/08 01:20:26;;;;;;;;;;;12.80;99.90;;;;;;5024734;28;20360;-68
2022/10/08 01:22:52;;;;;;;;;;;12.70;99.90;;;;;;5024746;28;20008;-68
2022/10/08 01:25:33;;;;;;;;;;;12.70;99.90;;;;;;5007984;28;20022;-68
2022/10/08 01:28:18;;;;;;;;;;;12.70;99.90;;;;;;4993170;28;19921;-69
2022/10/08 01:31:02;;;;;;;;;;;12.70;99.90;;;;;;4975476;28;19921;-69
2022/10/08 01:33:30;;;;;;;;;;;12.60;99.90;;;;;;5024562;28;19948;-68
2022/10/08 01:35:58;;;;;;;;;;;12.60;99.90;;;;;;5008364;28;19925;-68
2022/10/08 01:38:26;;;;;;;;;;;12.60;99.90;;;;;;5007935;28;19925;-69
2022/10/08 01:40:57;;;;;;;;;;;12.60;99.90;;;;;;5008108;28;19925;-69
2022/10/08 01:43:25;;;;;;;;;;;12.60;99.90;;;;;;5007565;28;20323;-69
2022/10/08 01:45:55;;;;;;;;;;;12.60;99.90;;;;;;5027720;28;19983;-69
2022/10/08 01:48:24;;;;;;;;;;;12.60;99.90;;;;;;5045415;28;19953;-68
2022/10/08 01:50:53;;;;;;;;;;;12.60;99.90;;;;;;5045059;28;19927;-69
2022/10/08 01:53:20;;;;;;;;;;;12.60;99.90;;;;;;5044692;28;19921;-69
2022/10/08 01:55:51;;;;;;;;;;;12.70;99.90;;;;;;5046162;28;19925;-69
2022/10/08 01:58:27;;;;;;;;;;;12.70;99.90;;;;;;5046316;28;19921;-68
2022/10/08 02:00:54;;;;;;;;;;;12.70;99.90;;;;;;5045584;28;19952;-68
2022/10/08 02:03:20;;;;;;;;;;;12.60;99.90;;;;;;5045111;28;19924;-68
2022/10/08 02:05:49;;;;;;;;;;;12.60;99.90;;;;;;5045299;28;19921;-68
2022/10/08 02:08:15;;;;;;;;;;;12.60;99.90;;;;;;5042778;28;19971;-68
2022/10/08 02:10:41;;;;;;;;;;;12.60;99.90;;;;;;5046205;28;20361;-69
2022/10/08 02:13:07;;;;;;;;;;;12.60;99.90;;;;;;5045114;28;19921;-69
2022/10/08 02:15:51;;;;;;;;;;;12.50;99.90;;;;;;5037801;28;19940;-68
2022/10/08 02:18:19;;;;;;;;;;;12.50;99.90;;;;;;5045379;28;19921;-68
2022/10/08 02:21:07;;;;;;;;;;;12.50;99.90;;;;;;5045282;28;19927;-68
2022/10/08 02:23:42;;;;;;;;;;;12.40;99.90;;;;;;5042530;28;19931;-69
2022/10/08 02:26:12;;;;;;;;;;;12.30;99.90;;;;;;5043438;28;19928;-68
2022/10/08 02:28:37;;;;;;;;;;;12.40;99.90;;;;;;5044685;28;19961;-68
2022/10/08 02:31:22;;;;;;;;;;;12.30;99.90;;;;;;5028049;28;19928;-68
2022/10/08 02:33:54;;;;;;;;;;;12.30;99.90;;;;;;5044667;28;19944;-68
2022/10/08 02:36:22;;;;;;;;;;;12.30;99.90;;;;;;5045302;28;20304;-69
2022/10/08 02:38:50;;;;;;;;;;;12.30;99.90;;;;;;5044964;28;19921;-68
2022/10/08 02:41:17;;;;;;;;;;;12.20;99.90;;;;;;5027667;28;19921;-68
2022/10/08 02:43:45;;;;;;;;;;;12.20;99.90;;;;;;5044159;28;19927;-68
2022/10/08 02:46:15;;;;;;;;;;;12.10;99.90;;;;;;5043876;28;19980;-68
2022/10/08 02:48:46;;;;;;;;;;;12.10;99.90;;;;;;5045553;28;19927;-68
2022/10/08 02:51:14;;;;;;;;;;;12.20;99.90;;;;;;5045232;28;20305;-68
2022/10/08 02:53:40;;;;;;;;;;;12.20;99.90;;;;;;5046042;28;20317;-68
2022/10/08 02:56:26;;;;;;;;;;;12.10;99.90;;;;;;5045994;28;19917;-68
2022/10/08 02:58:52;;;;;;;;;;;12.10;99.90;;;;;;5043781;28;19921;-68
2022/10/08 03:01:33;;;;;;;;;;;12.10;99.90;;;;;;5044832;28;19928;-68
2022/10/08 03:04:04;;;;;;;;;;;12.00;99.90;;;;;;5044852;28;20298;-68
2022/10/08 03:06:30;;;;;;;;;;;12.10;99.90;;;;;;5043627;28;20018;-68
2022/10/08 03:08:58;;;;;;;;;;;12.00;99.90;;;;;;5043293;28;19974;-68
2022/10/08 03:11:24;;;;;;;;;;;12.00;99.90;;;;;;5044999;28;19947;-68
2022/10/08 03:13:50;;;;;;;;;;;12.00;99.90;;;;;;5042439;28;19928;-68
2022/10/08 03:16:18;;;;;;;;;;;11.90;99.90;;;;;;5042325;28;20015;-68
2022/10/08 03:18:44;;;;;;;;;;;12.00;99.90;;;;;;5042867;28;19971;-68
2022/10/08 03:21:12;;;;;;;;;;;11.90;99.90;;;;;;5044898;28;19921;-68
2022/10/08 03:23:37;;;;;;;;;;;11.80;99.90;;;;;;5043716;28;19921;-69
2022/10/08 03:26:03;;;;;;;;;;;11.80;99.90;;;;;;5043876;28;19936;-68
2022/10/08 03:28:28;;;;;;;;;;;11.80;99.90;;;;;;5042901;28;20364;-68
2022/10/08 03:30:54;;;;;;;;;;;11.70;99.90;;;;;;5043028;28;19960;-68
2022/10/08 03:33:19;;;;;;;;;;;11.70;99.90;;;;;;5042725;28;19927;-68
2022/10/08 03:35:46;;;;;;;;;;;11.70;99.90;;;;;;5042519;28;19924;-68
2022/10/08 03:38:14;;;;;;;;;;;11.60;99.90;;;;;;5044223;28;19971;-68
2022/10/08 03:40:40;;;;;;;;;;;11.50;99.90;;;;;;5044953;28;20717;-68
2022/10/08 03:43:05;;;;;;;;;;;11.60;99.90;;;;;;5043163;28;19929;-68
2022/10/08 03:45:31;;;;;;;;;;;11.50;99.90;;;;;;5043082;28;19928;-68
2022/10/08 03:47:56;;;;;;;;;;;11.50;99.90;;;;;;5043104;28;19943;-68
2022/10/08 03:50:22;;;;;;;;;;;11.50;99.90;;;;;;5043214;28;19966;-68
2022/10/08 03:52:47;;;;;;;;;;;11.40;99.90;;;;;;5044221;28;19921;-68
2022/10/08 03:55:13;;;;;;;;;;;11.40;99.90;;;;;;5042201;28;20018;-68
2022/10/08 03:57:39;;;;;;;;;;;11.50;99.90;;;;;;5043413;28;19921;-68
2022/10/08 04:00:05;;;;;;;;;;;11.50;99.90;;;;;;5041494;28;19921;-68
2022/10/08 04:02:31;;;;;;;;;;;11.40;99.90;;;;;;5042187;28;19927;-68
2022/10/08 04:04:57;;;;;;;;;;;11.50;99.90;;;;;;5042485;28;19917;-67
2022/10/08 04:07:22;;;;;;;;;;;11.40;99.90;;;;;;5045466;28;20047;-68
2022/10/08 04:09:48;;;;;;;;;;;11.40;99.90;;;;;;5042726;28;19927;-68
2022/10/08 04:12:13;;;;;;;;;;;11.40;99.90;;;;;;5042822;28;19985;-68
2022/10/08 04:14:39;;;;;;;;;;;11.30;99.90;;;;;;5043784;28;19921;-68
2022/10/08 04:17:05;;;;;;;;;;;11.30;99.90;;;;;;5043116;28;19921;-69
2022/10/08 04:19:30;;;;;;;;;;;11.40;99.90;;;;;;5042391;28;19921;-68
2022/10/08 04:21:56;;;;;;;;;;;11.40;99.90;;;;;;5044039;28;19944;-68
2022/10/08 04:24:21;;;;;;;;;;;11.40;99.90;;;;;;5048867;28;19921;-68
2022/10/08 04:26:47;;;;;;;;;;;11.40;99.90;;;;;;5047081;28;19966;-68
2022/10/08 04:29:12;;;;;;;;;;;11.40;99.90;;;;;;5046519;28;20373;-68
2022/10/08 04:31:39;;;;;;;;;;;11.40;99.90;;;;;;5046496;28;19921;-68
2022/10/08 04:34:04;;;;;;;;;;;11.40;99.90;;;;;;5042190;28;19925;-68
2022/10/08 04:36:30;;;;;;;;;;;11.40;99.90;;;;;;5047071;28;20039;-68
2022/10/08 04:38:56;;;;;;;;;;;11.50;99.90;;;;;;5047232;28;19964;-68
2022/10/08 04:41:23;;;;;;;;;;;11.50;99.90;;;;;;5047662;28;19924;-68
2022/10/08 04:43:48;;;;;;;;;;;11.40;99.90;;;;;;5048633;28;19925;-68
2022/10/08 04:46:16;;;;;;;;;;;11.50;99.90;;;;;;5047344;28;19921;-67
2022/10/08 04:48:46;;;;;;;;;;;11.30;99.90;;;;;;5044536;28;19971;-67
2022/10/08 04:51:11;;;;;;;;;;;11.40;99.90;;;;;;5046391;28;19924;-68
2022/10/08 04:53:37;;;;;;;;;;;11.30;99.90;;;;;;5046592;28;19921;-68
2022/10/08 04:56:22;;;;;;;;;;;11.30;99.90;;;;;;5046688;28;19991;-68
2022/10/08 04:58:48;;;;;;;;;;;11.30;99.90;;;;;;5045630;28;19921;-68
2022/10/08 05:01:15;;;;;;;;;;;11.30;99.90;;;;;;5027748;28;19922;-68
2022/10/08 05:03:43;;;;;;;;;;;11.30;99.90;;;;;;5026870;28;19982;-68
2022/10/08 05:06:09;;;;;;;;;;;11.10;99.90;;;;;;5044692;28;19976;-68
2022/10/08 05:08:35;;;;;;;;;;;11.10;99.90;;;;;;5046243;28;19928;-68
2022/10/08 05:11:00;;;;;;;;;;;11.00;99.90;;;;;;5048134;28;19928;-68
2022/10/08 05:13:26;;;;;;;;;;;11.10;99.90;;;;;;5047686;28;19976;-68
2022/10/08 05:15:51;;;;;;;;;;;11.00;99.90;;;;;;5046022;28;19921;-68
2022/10/08 05:18:17;;;;;;;;;;;11.00;99.90;;;;;;5045676;28;20017;-68
2022/10/08 05:20:43;;;;;;;;;;;11.10;99.90;;;;;;5047192;28;19994;-68
2022/10/08 05:23:08;;;;;;;;;;;11.10;99.90;;;;;;5045990;28;19921;-68
2022/10/08 05:25:34;;;;;;;;;;;11.10;99.90;;;;;;5028212;28;19929;-68
2022/10/08 05:28:00;;;;;;;;;;;11.10;99.90;;;;;;5041295;28;19943;-68
2022/10/08 05:30:26;;;;;;;;;;;11.20;99.90;;;;;;5049713;28;20476;-68
2022/10/08 05:32:51;;;;;;;;;;;11.10;99.90;;;;;;5029403;28;19928;-68
2022/10/08 05:35:17;;;;;;;;;;;11.00;99.90;;;;;;5046223;28;19921;-68
2022/10/08 05:37:42;;;;;;;;;;;11.00;99.90;;;;;;5047143;28;19970;-68
2022/10/08 05:40:08;;;;;;;;;;;11.00;99.90;;;;;;5047016;28;19925;-68
2022/10/08 05:42:34;;;;;;;;;;;11.00;99.90;;;;;;5046861;28;19944;-68
2022/10/08 05:44:59;;;;;;;;;;;11.00;99.90;;;;;;5046134;28;19928;-68
2022/10/08 05:47:25;;;;;;;;;;;11.10;99.90;;;;;;5045933;28;19921;-68
2022/10/08 05:49:51;;;;;;;;;;;11.10;99.90;;;;;;5045495;28;20301;-68
2022/10/08 05:52:16;;;;;;;;;;;11.00;99.90;;;;;;5045529;28;19928;-68
2022/10/08 05:54:42;;;;;;;;;;;11.10;99.90;;;;;;5045232;28;20335;-68
2022/10/08 05:57:08;;;;;;;;;;;11.00;99.90;;;;;;5046948;28;20277;-68
2022/10/08 05:59:33;;;;;;;;;;;11.00;99.90;;;;;;5038385;28;19929;-68
2022/10/08 06:01:59;;;;;;;;;;;11.00;99.90;;;;;;5025738;28;19989;-69
2022/10/08 06:04:24;;;;;;;;;;;11.00;99.90;;;;;;5025650;28;19953;-68
2022/10/08 06:06:50;;;;;;;;;;;11.10;99.90;;;;;;5026139;28;19921;-68
2022/10/08 06:09:17;;;;;;;;;;;11.00;99.90;;;;;;5025174;28;19976;-68
2022/10/08 06:11:42;;;;;;;;;;;11.00;99.90;;;;;;5025381;28;19964;-68
2022/10/08 06:14:09;;;;;;;;;;;11.00;99.90;;;;;;5026674;28;19922;-68
2022/10/08 06:16:35;;;;;;;;;;;11.00;99.90;;;;;;5034850;28;19921;-68
2022/10/08 06:19:02;;;;;;;;;;;11.00;99.90;;;;;;5040418;28;19921;-68
2022/10/08 06:21:28;;;;;;;;;;;11.10;99.90;;;;;;5044521;28;19921;-68
2022/10/08 06:23:58;;;;;;;;;;;11.00;99.90;;;;;;5043849;28;19984;-68
2022/10/08 06:26:25;;;;;;;;;;;11.10;99.90;;;;;;5043844;28;19927;-68
2022/10/08 06:28:51;;;;;;;;;;;11.00;99.90;;;;;;5045045;28;19921;-68
2022/10/08 06:31:17;;;;;;;;;;;11.00;99.90;;;;;;5041931;28;19975;-68
2022/10/08 06:33:42;;;;;;;;;;;11.00;99.90;;;;;;5029176;28;19921;-68
2022/10/08 06:36:13;;;;;;;;;;;11.00;99.90;;;;;;5045144;28;19986;-68
2022/10/08 06:38:38;;;;;;;;;;;11.10;99.90;;;;;;5045228;28;19921;-68
2022/10/08 06:41:04;;;;;;;;;;;11.20;99.90;;;;;;5044801;28;20392;-68
2022/10/08 06:43:29;;;;;;;;;;;11.30;99.90;;;;;;5028224;28;19952;-69
2022/10/08 06:45:58;;;;;;;;;;;11.30;99.90;;;;;;5042698;28;19956;-68
2022/10/08 06:48:24;;;;;;;;;;;11.40;99.90;;;;;;5037284;28;19928;-68
2022/10/08 06:51:04;;;;;;;;;;;11.30;99.90;;;;;;5040784;28;20626;-68
2022/10/08 06:53:30;;;;;;;;;;;11.40;99.90;;;;;;5042519;28;19979;-68
2022/10/08 06:56:00;;;;;;;;;;;11.50;99.90;;;;;;5044386;28;19929;-67
2022/10/08 06:58:26;;;;;;;;;;;11.50;99.90;;;;;;5045010;28;19924;-67
2022/10/08 07:01:07;;;;;;;;;;;11.60;99.90;;;;;;5049143;28;19948;-68
2022/10/08 07:03:33;;;;;;;;;;;11.50;99.90;;;;;;5056151;28;20397;-67
2022/10/08 07:06:00;;;;;;;;;;;11.50;99.90;;;;;;5039948;28;20296;-66
2022/10/08 07:08:26;;;;;;;;;;;11.40;99.90;;;;;;5033540;28;19978;-68
2022/10/08 07:10:53;;;;;;;;;;;11.50;99.90;;;;;;5043289;28;20088;-68
2022/10/08 07:13:18;;;;;;;;;;;11.50;99.90;;;;;;5043409;28;19923;-67
2022/10/08 07:15:44;;;;;;;;;;;11.40;99.90;;;;;;5044758;28;19975;-67
2022/10/08 07:18:11;;;;;;;;;;;11.50;99.90;;;;;;5043010;28;19925;-68
2022/10/08 07:20:37;;;;;;;;;;;11.60;99.90;;;;;;5043215;28;20412;-67
2022/10/08 07:23:03;;;;;;;;;;;11.70;99.90;;;;;;5043120;28;19983;-67
2022/10/08 07:25:29;;;;;;;;;;;11.70;99.90;;;;;;5042743;28;19925;-69
2022/10/08 07:27:54;;;;;;;;;;;11.70;99.90;;;;;;5015756;28;20111;-68
2022/10/08 07:30:20;;;;;;;;;;;11.70;99.90;;;;;;5038908;28;19940;-68
2022/10/08 07:32:45;;;;;;;;;;;11.70;99.90;;;;;;5026390;28;19932;-68
2022/10/08 07:35:11;;;;;;;;;;;11.90;99.90;;;;;;5044492;28;19928;-68
2022/10/08 07:37:40;;;;;;;;;;;11.90;99.90;;;;;;5043338;28;19924;-68
2022/10/08 07:40:06;;;;;;;;;;;11.90;99.90;;;;;;5042435;28;19932;-68
2022/10/08 07:42:31;;;;;;;;;;;12.00;99.90;;;;;;5040179;28;19960;-70
2022/10/08 07:44:57;;;;;;;;;;;12.00;99.90;;;;;;5043214;28;19925;-69
2022/10/08 07:47:22;;;;;;;;;;;12.10;99.90;;;;;;5043423;28;19963;-70
2022/10/08 07:49:48;;;;;;;;;;;12.20;99.90;;;;;;5043905;28;19921;-70
2022/10/08 07:52:13;;;;;;;;;;;12.20;99.90;;;;;;5042517;28;19943;-70
2022/10/08 07:54:39;;;;;;;;;;;12.30;99.90;;;;;;5042988;28;19921;-70
2022/10/08 07:57:05;;;;;;;;;;;12.40;99.90;;;;;;5042007;28;19975;-70
2022/10/08 07:59:31;;;;;;;;;;;12.50;99.90;;;;;;5042559;28;19928;-70
2022/10/08 08:01:57;;;;;;;;;;;12.60;99.90;;;;;;5043923;28;19921;-70
2022/10/08 08:04:23;;;;;;;;;;;12.60;99.90;;;;;;5043458;28;19967;-70
2022/10/08 08:06:51;;;;;;;;;;;12.40;99.90;;;;;;5044409;28;19944;-70
2022/10/08 08:09:17;;;;;;;;;;;12.40;99.90;;;;;;5044277;28;19925;-67
2022/10/08 08:11:44;;;;;;;;;;;12.40;99.90;;;;;;5045072;28;20267;-67
2022/10/08 08:14:10;;;;;;;;;;;12.50;99.90;;;;;;5043454;28;19921;-65
2022/10/08 08:16:36;;;;;;;;;;;12.50;99.90;;;;;;5043603;28;20320;-65
2022/10/08 08:19:02;;;;;;;;;;;12.60;99.90;;;;;;5041272;28;19964;-64
2022/10/08 08:21:29;;;;;;;;;;;12.70;99.90;;;;;;4982050;28;19937;-65
2022/10/08 08:23:56;;;;;;;;;;;12.80;99.90;;;;;;5041802;28;19956;-66
2022/10/08 08:26:31;;;;;;;;;;;12.80;99.90;;;;;;5029904;28;19933;-66
2022/10/08 08:29:01;;;;;;;;;;;12.90;99.90;;;;;;5036013;28;19917;-65
2022/10/08 08:31:32;;;;;;;;;;;13.00;99.90;;;;;;5035699;28;20377;-65
2022/10/08 08:34:02;;;;;;;;;;;13.10;99.90;;;;;;5035091;28;19974;-65
2022/10/08 08:36:31;;;;;;;;;;;13.20;99.90;;;;;;5036584;28;19921;-66
2022/10/08 08:38:57;;;;;;;;;;;13.30;99.90;;;;;;5015236;28;19928;-66
2022/10/08 08:41:38;;;;;;;;;;;13.30;99.90;;;;;;5032115;28;20380;-65
2022/10/08 08:44:09;;;;;;;;;;;13.40;99.90;;;;;;5017666;28;19925;-65
2022/10/08 08:46:39;;;;;;;;;;;13.50;99.90;;;;;;5028590;28;19925;-65
2022/10/08 08:49:10;;;;;;;;;;;13.60;99.90;;;;;;5033735;28;19971;-65
2022/10/08 08:51:35;;;;;;;;;;;13.60;99.90;;;;;;5032727;28;19937;-67
2022/10/08 08:54:01;;;;;;;;;;;13.70;99.90;;;;;;5032989;28;19920;-67
2022/10/08 08:56:27;;;;;;;;;;;13.70;99.90;;;;;;5037450;28;20003;-67
2022/10/08 08:58:58;;;;;;;;;;;13.80;99.90;;;;;;5026956;28;19994;-67
2022/10/08 09:01:28;;;;;;;;;;;13.80;99.90;;;;;;5034953;28;20028;-67
2022/10/08 09:03:55;;;;;;;;;;;13.90;99.90;;;;;;5038765;28;20015;-67
2022/10/08 09:06:22;;;;;;;;;;;14.00;99.90;;;;;;5034201;28;19943;-68
2022/10/08 09:08:59;;;;;;;;;;;14.00;99.90;;;;;;5029033;28;19932;-67
2022/10/08 09:11:25;;;;;;;;;;;14.00;99.90;;;;;;5032500;28;19944;-67
2022/10/08 09:13:54;;;;;;;;;;;14.10;99.90;;;;;;5031751;28;19977;-67
2022/10/08 09:16:20;;;;;;;;;;;14.20;99.90;;;;;;5037634;28;19960;-67
2022/10/08 09:18:47;;;;;;;;;;;14.20;99.90;;;;;;5032433;28;19921;-66
2022/10/08 09:21:13;;;;;;;;;;;14.30;99.90;;;;;;5018172;28;19929;-66
2022/10/08 09:23:38;;;;;;;;;;;14.40;99.90;;;;;;5019063;28;19925;-67
2022/10/08 09:26:07;;;;;;;;;;;14.40;99.90;;;;;;5021138;28;19925;-66
2022/10/08 09:28:39;;;;;;;;;;;14.40;99.90;;;;;;5032116;28;19951;-66
2022/10/08 09:31:12;;;;;;;;;;;14.50;99.90;;;;;;5032688;28;20019;-66
2022/10/08 09:33:38;;;;;;;;;;;14.60;99.90;;;;;;5032501;28;19943;-66
2022/10/08 09:36:03;;;;;;;;;;;14.60;99.90;;;;;;5037630;28;20388;-66
2022/10/08 09:38:33;;;;;;;;;;;14.70;99.90;;;;;;5029359;28;20008;-66
2022/10/08 09:41:07;;;;;;;;;;;14.70;99.90;;;;;;5038348;28;19928;-66
2022/10/08 09:43:34;;;;;;;;;;;14.70;99.90;;;;;;5032163;28;19924;-66
2022/10/08 09:46:03;;;;;;;;;;;14.70;99.90;;;;;;5038365;28;20381;-66
2022/10/08 09:48:29;;;;;;;;;;;14.70;99.90;;;;;;5032313;28;19924;-66
2022/10/08 09:50:57;;;;;;;;;;;15.00;99.90;;;;;;5025998;28;19940;-66
2022/10/08 09:53:24;;;;;;;;;;;15.20;99.90;;;;;;5022317;28;20427;-66
2022/10/08 09:55:55;;;;;;;;;;;15.10;99.90;;;;;;5034029;28;20196;-66
2022/10/08 09:58:21;;;;;;;;;;;15.10;99.90;;;;;;5031844;28;19996;-66
2022/10/08 10:00:54;;;;;;;;;;;15.10;99.90;;;;;;5031587;28;19963;-66
2022/10/08 10:03:24;;;;;;;;;;;15.30;99.90;;;;;;5029077;28;19920;-67
2022/10/08 10:05:51;;;;;;;;;;;15.40;99.90;;;;;;5038789;28;19956;-66
2022/10/08 10:08:35;;;;;;;;;;;15.60;99.90;;;;;;5031248;28;19921;-67
2022/10/08 10:11:01;;;;;;;;;;;15.60;99.90;;;;;;5028571;28;20366;-67
2022/10/08 10:13:31;;;;;;;;;;;15.60;99.90;;;;;;5030833;28;19964;-67
2022/10/08 10:16:04;;;;;;;;;;;15.50;99.90;;;;;;5031914;28;19955;-67
2022/10/08 10:18:33;;;;;;;;;;;15.40;99.90;;;;;;5029880;28;19992;-66
2022/10/08 10:21:01;;;;;;;;;;;15.40;99.90;;;;;;5015003;28;19925;-67
2022/10/08 10:23:30;;;;;;;;;;;15.20;99.90;;;;;;5026637;28;20178;-65
2022/10/08 10:26:22;;;;;;;;;;;15.00;99.90;;;;;;5031574;28;19933;-67
2022/10/08 10:28:59;;;;;;;;;;;14.80;99.90;;;;;;5025939;28;20300;-66
2022/10/08 10:31:43;;;;;;;;;;;14.90;99.90;;;;;;5036952;28;19925;-66
2022/10/08 10:34:14;;;;;;;;;;;15.00;99.90;;;;;;5026536;28;19928;-66
2022/10/08 10:36:46;;;;;;;;;;;15.20;99.90;;;;;;5038316;28;19921;-66
2022/10/08 10:39:12;;;;;;;;;;;15.40;99.90;;;;;;5032832;28;19929;-66
2022/10/08 10:41:44;;;;;;;;;;;15.30;99.90;;;;;;5043987;28;19924;-67
2022/10/08 10:44:11;;;;;;;;;;;15.40;99.90;;;;;;5033179;28;19921;-66
2022/10/08 10:46:42;;;;;;;;;;;15.60;99.90;;;;;;5036886;28;19921;-67
2022/10/08 10:49:12;;;;;;;;;;;15.70;99.90;;;;;;5025957;28;19989;-67
2022/10/08 10:51:49;;;;;;;;;;;15.90;99.90;;;;;;5010529;28;19924;-66
2022/10/08 10:54:21;;;;;;;;;;;16.00;99.90;;;;;;5048129;28;19924;-67
2022/10/08 10:56:52;;;;;;;;;;;16.10;99.90;;;;;;5032228;28;19921;-66
2022/10/08 10:59:44;;;;;;;;;;;16.10;99.90;;;;;;5022347;28;19970;-65
2022/10/08 11:02:22;;;;;;;;;;;16.20;99.90;;;;;;5029152;28;19921;-65
2022/10/08 11:05:12;;;;;;;;;;;16.30;99.90;;;;;;5037406;28;20395;-65
2022/10/08 11:07:38;;;;;;;;;;;16.30;99.90;;;;;;5036071;28;20499;-66
2022/10/08 11:10:07;;;;;;;;;;;16.30;99.90;;;;;;5027998;28;20074;-66
2022/10/08 11:12:33;;;;;;;;;;;16.20;99.90;;;;;;5036653;28;19963;-66
2022/10/08 11:15:05;;;;;;;;;;;16.00;99.90;;;;;;5026354;28;19921;-66
2022/10/08 11:17:38;;;;;;;;;;;15.60;99.90;;;;;;5024822;28;19921;-66
2022/10/08 11:20:07;;;;;;;;;;;15.70;99.90;;;;;;5026849;28;20046;-66
2022/10/08 11:22:39;;;;;;;;;;;15.80;99.90;;;;;;5028651;28;19967;-67
2022/10/08 11:25:17;;;;;;;;;;;16.00;99.90;;;;;;5022161;28;19948;-66
2022/10/08 11:28:09;;;;;;;;;;;16.20;99.90;;;;;;5020867;28;20169;-66
2022/10/08 11:30:41;;;;;;;;;;;16.30;99.90;;;;;;4995441;28;19921;-67
2022/10/08 11:33:10;;;;;;;;;;;16.30;99.90;;;;;;5014404;28;19921;-66
2022/10/08 11:35:35;;;;;;;;;;;16.40;99.90;;;;;;5020848;28;20438;-66
2022/10/08 11:38:01;;;;;;;;;;;16.30;99.90;;;;;;5018393;28;20012;-68
2022/10/08 11:40:33;;;;;;;;;;;16.40;99.90;;;;;;5021472;28;19952;-66
2022/10/08 11:43:15;;;;;;;;;;;16.50;99.90;;;;;;5018341;28;19929;-68
2022/10/08 11:45:43;;;;;;;;;;;16.40;99.90;;;;;;5033027;28;20396;-65
2022/10/08 11:48:27;;;;;;;;;;;16.50;99.90;;;;;;5013254;28;20055;-66
2022/10/08 11:50:52;;;;;;;;;;;16.40;99.90;;;;;;5034313;28;19925;-66
2022/10/08 11:53:20;;;;;;;;;;;16.40;99.90;;;;;;5035815;28;19921;-66
2022/10/08 11:55:56;;;;;;;;;;;16.50;99.90;;;;;;5032502;28;19933;-66
2022/10/08 11:58:27;;;;;;;;;;;16.60;99.90;;;;;;5025451;28;19928;-66
2022/10/08 12:00:59;;;;;;;;;;;16.70;99.90;;;;;;5037060;28;19952;-66
2022/10/08 12:03:26;;;;;;;;;;;16.90;99.90;;;;;;5028360;28;19925;-67
2022/10/08 12:05:54;;;;;;;;;;;17.10;99.90;;;;;;5047824;28;19968;-67
2022/10/08 12:08:40;;;;;;;;;;;17.10;99.90;;;;;;5026589;28;20277;-67
2022/10/08 12:11:24;;;;;;;;;;;17.10;99.90;;;;;;5023941;28;19921;-67
2022/10/08 12:14:09;;;;;;;;;;;17.10;99.90;;;;;;5028027;28;20466;-67
2022/10/08 12:16:47;;;;;;;;;;;17.10;99.90;;;;;;5034871;28;19927;-67
2022/10/08 12:19:31;;;;;;;;;;;17.40;99.90;;;;;;4996940;28;1091994;-66
2022/10/08 12:21:57;;;;;;;;;;;17.30;99.90;;;;;;5019822;28;20052;-66
2022/10/08 12:24:53;;;;;;;;;;;17.20;99.90;;;;;;5024530;28;19931;-67
2022/10/08 12:27:26;;;;;;;;;;;17.30;99.90;;;;;;5018865;28;20298;-66
2022/10/08 12:29:52;;;;;;;;;;;17.20;99.90;;;;;;5018790;28;19925;-65
2022/10/08 12:32:17;;;;;;;;;;;16.90;99.90;;;;;;5014743;28;20079;-68
2022/10/08 12:34:43;;;;;;;;;;;17.10;99.90;;;;;;5026214;28;20036;-66
2022/10/08 12:37:15;;;;;;;;;;;17.40;99.90;;;;;;5020580;28;19930;-66
2022/10/08 12:39:43;;;;;;;;;;;17.70;99.90;;;;;;5021289;28;19925;-65
2022/10/08 12:42:24;;;;;;;;;;;18.20;99.90;;;;;;5032815;28;20023;-66
2022/10/08 12:45:03;;;;;;;;;;;18.40;99.90;;;;;;5028325;28;19935;-65
2022/10/08 12:47:28;;;;;;;;;;;18.50;99.90;;;;;;5036782;28;20309;-66
2022/10/08 12:49:58;;;;;;;;;;;18.60;99.90;;;;;;5042305;28;19920;-65
2022/10/08 12:52:24;;;;;;;;;;;19.10;99.90;;;;;;5032508;28;20229;-66
2022/10/08 12:54:51;;;;;;;;;;;19.20;99.90;;;;;;5024478;28;19996;-66
2022/10/08 12:57:25;;;;;;;;;;;19.50;99.90;;;;;;5035770;28;20443;-66
2022/10/08 12:59:52;;;;;;;;;;;19.70;99.70;;;;;;5023430;28;19921;-65
2022/10/08 13:02:38;;;;;;;;;;;19.80;99.40;;;;;;5041044;28;19925;-65
2022/10/08 13:05:22;;;;;;;;;;;19.90;99.50;;;;;;5045818;28;19982;-66
2022/10/08 13:07:47;;;;;;;;;;;20.40;99.90;;;;;;5055524;28;19921;-66
2022/10/08 13:10:18;;;;;;;;;;;20.70;99.20;;;;;;5034389;28;19927;-65
2022/10/08 13:12:57;;;;;;;;;;;20.30;97.60;;;;;;5039420;28;19936;-65
2022/10/08 13:15:24;;;;;;;;;;;19.70;98.60;;;;;;5031452;28;19954;-65
2022/10/08 13:17:52;;;;;;;;;;;19.30;98.70;;;;;;5035371;28;19921;-65
2022/10/08 13:20:20;;;;;;;;;;;19.10;99.10;;;;;;5037340;28;19927;-66
2022/10/08 13:22:46;;;;;;;;;;;18.40;99.20;;;;;;5021336;28;19924;-66
2022/10/08 13:25:30;;;;;;;;;;;17.60;99.90;;;;;;5033306;28;19921;-66
2022/10/08 13:28:14;;;;;;;;;;;17.10;99.90;;;;;;5032481;28;19921;-65
2022/10/08 13:30:40;;;;;;;;;;;16.90;99.90;;;;;;5027396;28;19924;-66
2022/10/08 13:33:19;;;;;;;;;;;16.80;99.90;;;;;;5037531;28;19932;-65
2022/10/08 13:35:53;;;;;;;;;;;16.70;99.90;;;;;;5028531;28;20400;-66
2022/10/08 13:38:29;;;;;;;;;;;17.40;99.90;;;;;;5037247;28;19932;-65
2022/10/08 13:40:57;;;;;;;;;;;17.90;99.90;;;;;;5011179;28;19932;-66
2022/10/08 13:43:24;;;;;;;;;;;18.20;99.90;;;;;;5040055;28;20254;-66
2022/10/08 13:45:50;;;;;;;;;;;18.10;99.90;;;;;;5027015;28;20256;-66
2022/10/08 13:48:15;;;;;;;;;;;18.30;99.90;;;;;;5036407;28;19921;-66
2022/10/08 13:50:42;;;;;;;;;;;18.30;99.90;;;;;;5024819;28;19925;-65
2022/10/08 13:53:08;;;;;;;;;;;18.10;99.90;;;;;;5037984;28;19948;-66
2022/10/08 13:55:37;;;;;;;;;;;18.10;99.90;;;;;;5029611;28;19917;-65
2022/10/08 13:58:04;;;;;;;;;;;18.20;99.90;;;;;;5034321;28;19939;-67
2022/10/08 14:00:30;;;;;;;;;;;18.00;99.90;;;;;;5032472;28;19921;-65
2022/10/08 14:02:56;;;;;;;;;;;17.60;99.90;;;;;;5032540;28;19925;-65
2022/10/08 14:05:22;;;;;;;;;;;17.20;99.90;;;;;;5032804;28;20017;-65
2022/10/08 14:07:53;;;;;;;;;;;16.80;99.90;;;;;;5040510;28;20308;-64
2022/10/08 14:10:18;;;;;;;;;;;16.30;99.90;;;;;;5029839;28;20446;-65
2022/10/08 14:12:44;;;;;;;;;;;16.30;99.90;;;;;;5036559;28;20010;-66
2022/10/08 14:15:11;;;;;;;;;;;16.30;99.90;;;;;;5029715;28;19924;-65
2022/10/08 14:17:36;;;;;;;;;;;16.50;99.90;;;;;;5035687;28;20003;-66
2022/10/08 14:20:02;;;;;;;;;;;16.80;99.90;;;;;;5041733;28;19955;-65
2022/10/08 14:22:28;;;;;;;;;;;16.90;99.90;;;;;;5023955;28;20004;-65